createdAt,value
2023-02-17T00:04:36.173Z,0.0
2023-02-17T00:09:37.327Z,0.0
2023-02-17T00:14:38.623Z,0.0
2023-02-17T00:19:39.807Z,0.0
2023-02-17T00:24:41.043Z,0.0
2023-02-17T00:29:42.052Z,0.0
2023-02-17T00:34:43.044Z,0.0
2023-02-17T00:39:44.157Z,0.0
2023-02-17T00:44:45.072Z,0.0
2023-02-17T00:49:45.997Z,0.0
2023-02-17T00:54:46.969Z,0.0
2023-02-17T00:59:47.959Z,0.0
2023-02-17T01:04:49.014Z,0.0
2023-02-17T01:09:50.387Z,0.0
2023-02-17T01:14:51.328Z,0.0
2023-02-17T01:19:52.289Z,0.0
2023-02-17T01:24:53.198Z,0.0
2023-02-17T01:29:54.316Z,0.0
2023-02-17T01:34:55.314Z,0.0
2023-02-17T01:39:56.268Z,0.0
2023-02-17T01:44:57.207Z,0.0
2023-02-17T01:49:58.189Z,0.0
2023-02-17T01:54:59.109Z,0.0
2023-02-17T02:00:00.332Z,0.0
2023-02-17T02:05:01.384Z,0.0
2023-02-17T02:10:02.401Z,0.0
2023-02-17T02:15:03.396Z,0.0
2023-02-17T02:20:04.523Z,0.0
2023-02-17T02:25:05.508Z,0.0
2023-02-17T02:30:06.619Z,0.0
2023-02-17T02:35:07.747Z,0.0
2023-02-17T02:40:08.695Z,0.0
2023-02-17T02:45:09.640Z,0.0
2023-02-17T02:50:10.749Z,0.0
2023-02-17T02:55:11.660Z,0.0
2023-02-17T03:00:12.610Z,0.0
2023-02-17T03:05:13.565Z,0.0
2023-02-17T03:10:14.525Z,0.0
2023-02-17T03:15:15.570Z,0.0
2023-02-17T03:20:16.658Z,0.0
2023-02-17T03:25:17.600Z,0.0
2023-02-17T03:30:18.551Z,0.0
2023-02-17T03:35:19.527Z,0.0
2023-02-17T03:40:20.477Z,0.0
2023-02-17T03:45:21.382Z,0.0
2023-02-17T03:50:22.346Z,0.0
2023-02-17T03:55:23.283Z,0.0
2023-02-17T04:00:24.202Z,0.0
2023-02-17T04:05:25.174Z,0.0
2023-02-17T04:10:26.157Z,0.0
2023-02-17T04:15:27.117Z,0.0
2023-02-17T04:20:28.113Z,0.0
2023-02-17T04:25:29.049Z,0.0
2023-02-17T04:30:30.012Z,0.0
2023-02-17T04:35:31.092Z,0.0
2023-02-17T04:40:32.161Z,0.0
2023-02-17T04:45:33.159Z,0.0
2023-02-17T04:50:34.096Z,0.0
2023-02-17T04:55:35.233Z,0.0
2023-02-17T05:00:36.246Z,0.0
2023-02-17T05:05:37.825Z,0.0
2023-02-17T05:10:39.038Z,0.0
2023-02-17T05:15:40.332Z,0.0
2023-02-17T05:20:41.285Z,0.0
2023-02-17T05:25:42.463Z,0.0
2023-02-17T05:30:43.406Z,0.0
2023-02-17T05:35:44.317Z,0.0
2023-02-17T05:40:45.218Z,0.0
2023-02-17T05:45:46.144Z,0.0
2023-02-17T05:50:47.170Z,0.0
2023-02-17T05:55:48.898Z,0.0
2023-02-17T06:00:50.228Z,0.4148
2023-02-17T06:05:51.185Z,1.3463
2023-02-17T06:10:52.117Z,2.50815
2023-02-17T06:15:53.327Z,6.9711
2023-02-17T06:20:54.269Z,8.3174
2023-02-17T06:25:55.197Z,12.9648
2023-02-17T06:30:56.337Z,16.2659
2023-02-17T06:35:57.324Z,17.79665
2023-02-17T06:40:58.252Z,28.43775
2023-02-17T06:45:59.219Z,33.6385
2023-02-17T06:51:00.262Z,52.597
2023-02-17T06:56:01.279Z,70.15405
2023-02-17T07:01:02.355Z,87.7111
2023-02-17T07:06:03.290Z,147.6481
2023-02-17T07:11:04.255Z,167.76845
2023-02-17T07:16:05.755Z,187.8888
2023-02-17T07:21:06.916Z,238.34655
2023-02-17T07:26:08.163Z,236.15215
2023-02-17T07:31:09.311Z,341.58575
2023-02-17T07:36:10.254Z,380.36985
2023-02-17T07:41:11.180Z,490.34055
2023-02-17T07:46:12.225Z,500.318
2023-02-17T07:51:13.139Z,478.5376
2023-02-17T07:56:14.181Z,407.2217
2023-02-17T08:01:15.122Z,399.58695
2023-02-17T08:06:16.060Z,513.33795
2023-02-17T08:11:17.032Z,351.37875
2023-02-17T08:16:18.013Z,337.8606
2023-02-17T08:21:18.958Z,349.29465
2023-02-17T08:26:20.094Z,416.81125
2023-02-17T08:31:21.174Z,369.47015
2023-02-17T08:36:22.298Z,361.7061
2023-02-17T08:41:23.245Z,355.2142
2023-02-17T08:46:24.347Z,330.5016
2023-02-17T08:51:25.320Z,341.32715
2023-02-17T08:56:26.248Z,333.74755
2023-02-17T09:01:27.259Z,381.2731
2023-02-17T09:06:28.240Z,441.63415
2023-02-17T09:11:29.204Z,415.4098
2023-02-17T09:16:30.215Z,479.496
2023-02-17T09:21:31.354Z,436.00935
2023-02-17T09:26:32.916Z,471.5475
2023-02-17T09:31:34.213Z,456.4986
2023-02-17T09:36:35.317Z,480.91645
2023-02-17T09:41:36.257Z,656.92815
2023-02-17T09:46:37.484Z,581.7578
2023-02-17T09:51:38.795Z,543.3426
2023-02-17T09:56:40.077Z,570.3599
2023-02-17T10:01:41.561Z,637.5076
2023-02-17T10:06:42.671Z,672.93545
2023-02-17T10:11:43.695Z,586.3862
2023-02-17T10:16:44.750Z,592.43505
2023-02-17T10:21:45.861Z,703.99165
2023-02-17T10:26:46.838Z,776.65385
2023-02-17T10:31:47.972Z,691.4509
2023-02-17T10:36:48.971Z,639.66585
2023-02-17T10:41:49.904Z,594.5743
2023-02-17T10:46:50.962Z,782.0029
2023-02-17T10:51:51.923Z,842.3811
2023-02-17T10:56:52.862Z,711.6644
2023-02-17T11:01:53.786Z,775.9902
2023-02-17T11:06:55.775Z,753.78575
2023-02-17T11:11:56.699Z,669.76365
2023-02-17T11:16:57.615Z,899.9031
2023-02-17T11:21:58.527Z,756.1836
2023-02-17T11:26:59.535Z,803.57985
2023-02-17T11:32:00.566Z,627.8629
2023-02-17T11:37:01.582Z,629.02475
2023-02-17T11:42:02.532Z,695.7484
2023-02-17T11:47:03.835Z,698.49615
2023-02-17T11:52:05.035Z,732.4484
2023-02-17T11:57:05.938Z,684.92285
2023-02-17T12:02:07.065Z,521.6915
2023-02-17T12:07:08.060Z,577.9585
2023-02-17T12:12:09.011Z,679.53765
2023-02-17T12:17:10.179Z,635.5528
2023-02-17T12:22:11.110Z,577.40515
2023-02-17T12:27:12.116Z,585.5381
2023-02-17T12:32:13.247Z,580.8907
2023-02-17T12:37:14.432Z,607.98215
2023-02-17T12:42:15.420Z,713.7295
2023-02-17T12:47:16.326Z,906.8552
2023-02-17T12:52:17.298Z,1118.6275
2023-02-17T12:57:18.256Z,961.0571
2023-02-17T13:02:19.262Z,755.63025
2023-02-17T13:07:21.319Z,527.97995
2023-02-17T13:12:22.417Z,430.84475
2023-02-17T13:17:23.391Z,358.31185
2023-02-17T13:22:24.450Z,431.21365
2023-02-17T13:27:25.380Z,424.0581
2023-02-17T13:32:26.307Z,383.26405
2023-02-17T13:37:27.220Z,364.9882
2023-02-17T13:42:28.169Z,300.0349
2023-02-17T13:47:29.152Z,299.4264
2023-02-17T13:52:30.197Z,273.6261
2023-02-17T13:57:31.315Z,235.5798
2023-02-17T14:02:36.332Z,231.35645
2023-02-17T14:07:37.758Z,188.92135
2023-02-17T14:12:38.996Z,187.2613
2023-02-17T14:17:40.285Z,156.3154
2023-02-17T14:22:41.617Z,169.83355
2023-02-17T14:27:42.597Z,163.71055
2023-02-17T14:32:43.541Z,149.15985
2023-02-17T14:37:44.509Z,144.14355
2023-02-17T14:42:45.462Z,137.5965
2023-02-17T14:47:46.440Z,101.94805
2023-02-17T14:52:47.356Z,115.89025
2023-02-17T14:57:48.509Z,162.3091
2023-02-17T15:02:54.415Z,175.0153
2023-02-17T15:07:55.410Z,156.00165
2023-02-17T15:12:56.506Z,116.49875
2023-02-17T15:17:57.728Z,84.391
2023-02-17T15:22:58.677Z,67.7562
2023-02-17T15:27:59.658Z,61.94695
2023-02-17T15:33:00.641Z,89.59175
2023-02-17T15:38:01.714Z,88.4299
2023-02-17T15:43:02.674Z,54.9207
2023-02-17T15:48:03.613Z,56.267
2023-02-17T15:53:04.682Z,32.23705
2023-02-17T15:58:05.723Z,22.57335
2023-02-17T16:03:06.719Z,17.18815
2023-02-17T16:08:07.741Z,21.46665
2023-02-17T16:13:08.686Z,12.9648
2023-02-17T16:18:09.580Z,5.3852
2023-02-17T16:23:10.491Z,5.0163
2023-02-17T16:28:11.392Z,6.17815
2023-02-17T16:33:12.342Z,1.6592
2023-02-17T16:38:13.312Z,0.88885
2023-02-17T16:43:14.321Z,0.47405
2023-02-17T16:48:15.252Z,0.4148
2023-02-17T16:53:16.208Z,0.4148
2023-02-17T16:58:17.163Z,0.0
2023-02-17T17:03:18.204Z,0.0
2023-02-17T17:08:21.561Z,0.0
2023-02-17T17:13:23.093Z,0.0
2023-02-17T17:18:24.447Z,0.0
2023-02-17T17:23:25.602Z,0.0
2023-02-17T17:28:26.822Z,0.0
2023-02-17T17:33:27.785Z,0.0
2023-02-17T17:38:29.407Z,0.0
2023-02-17T17:43:30.333Z,0.0
2023-02-17T17:48:31.346Z,0.0
2023-02-17T17:53:32.270Z,0.0
2023-02-17T17:58:33.194Z,0.4148
2023-02-17T18:03:34.307Z,0.4148
2023-02-17T18:08:35.303Z,0.4148
2023-02-17T18:13:36.240Z,0.4148
2023-02-17T18:18:37.161Z,0.0
2023-02-17T18:23:38.475Z,0.4148
2023-02-17T18:28:39.800Z,0.4148
2023-02-17T18:33:41.044Z,0.0
2023-02-17T18:38:42.050Z,0.0
2023-02-17T18:43:42.969Z,0.0
2023-02-17T18:48:43.885Z,0.0
2023-02-17T18:53:44.828Z,0.0
2023-02-17T18:58:45.811Z,0.0
2023-02-17T19:03:46.736Z,0.0
2023-02-17T19:08:47.675Z,0.0
2023-02-17T19:13:48.617Z,0.0
2023-02-17T19:18:49.552Z,0.0
2023-02-17T19:23:50.516Z,0.0
2023-02-17T19:28:51.541Z,0.0
2023-02-17T19:33:52.459Z,0.0
2023-02-17T19:38:53.432Z,0.0
2023-02-17T19:43:54.357Z,0.0
2023-02-17T19:48:55.337Z,0.0
2023-02-17T19:53:56.318Z,0.0
2023-02-17T19:58:57.298Z,0.0
2023-02-17T20:03:58.268Z,0.0
2023-02-17T20:08:59.310Z,0.0
2023-02-17T20:14:00.237Z,0.0
2023-02-17T20:19:01.291Z,0.0
2023-02-17T20:24:02.321Z,0.0
2023-02-17T20:29:03.222Z,0.0
2023-02-17T20:34:04.135Z,0.0
2023-02-17T20:39:05.243Z,0.0
2023-02-17T20:44:06.142Z,0.0
2023-02-17T20:49:07.045Z,0.0
2023-02-17T20:54:07.977Z,0.0
2023-02-17T20:59:08.909Z,0.4148
2023-02-17T21:04:09.821Z,0.0
2023-02-17T21:09:10.773Z,0.0
2023-02-17T21:14:11.760Z,0.0
2023-02-17T21:19:12.676Z,0.0
2023-02-17T21:24:14.772Z,0.0
2023-02-17T21:29:20.907Z,0.0
2023-02-17T21:34:21.828Z,0.0
2023-02-17T21:39:22.853Z,0.0
2023-02-17T21:44:23.803Z,0.0
2023-02-17T21:49:24.781Z,0.0
2023-02-17T21:54:25.710Z,0.0
2023-02-17T21:59:26.626Z,0.0
2023-02-17T22:04:27.725Z,0.0
2023-02-17T22:09:28.683Z,0.0
2023-02-17T22:14:29.600Z,0.0
2023-02-17T22:19:31.649Z,0.0
2023-02-17T22:24:32.643Z,0.0
2023-02-17T22:29:33.765Z,0.0
2023-02-17T22:34:34.731Z,0.0
2023-02-17T22:39:35.685Z,0.0
2023-02-17T22:44:36.631Z,0.0
2023-02-17T22:49:37.554Z,0.0
2023-02-17T22:54:38.792Z,0.0
2023-02-17T22:59:39.996Z,0.0
2023-02-17T23:04:41.595Z,0.0
2023-02-17T23:09:42.622Z,0.0
2023-02-17T23:14:43.568Z,0.0
2023-02-17T23:19:44.667Z,0.0
2023-02-17T23:24:45.654Z,0.0
2023-02-17T23:29:46.581Z,0.0
2023-02-17T23:34:47.494Z,0.0
2023-02-17T23:39:48.547Z,0.0
2023-02-17T23:44:49.490Z,0.0
2023-02-17T23:49:50.426Z,0.0
2023-02-17T23:54:51.379Z,0.0
2023-02-17T23:59:52.306Z,0.0
